sensor_id;sensor_type;location;lat;lon;timestamp;P1;durP1;ratioP1;P2;durP2;ratioP2
13026;SDS011;6580;42.680;23.324;2024-03-02T00:00:49;22.60;;;15.90;;
13026;SDS011;6580;42.680;23.324;2024-03-02T00:03:17;23.63;;;15.80;;
13026;SDS011;6580;42.680;23.324;2024-03-02T00:05:49;19.70;;;13.53;;
13026;SDS011;6580;42.680;23.324;2024-03-02T00:08:21;22.03;;;15.03;;
13026;SDS011;6580;42.680;23.324;2024-03-02T00:10:52;23.10;;;15.53;;
13026;SDS011;6580;42.680;23.324;2024-03-02T00:13:27;21.13;;;14.83;;
13026;SDS011;6580;42.680;23.324;2024-03-02T00:15:56;21.00;;;14.43;;
13026;SDS011;6580;42.680;23.324;2024-03-02T00:18:25;19.00;;;13.83;;
13026;SDS011;6580;42.680;23.324;2024-03-02T00:20:54;21.17;;;14.60;;
13026;SDS011;6580;42.680;23.324;2024-03-02T00:23:22;21.37;;;15.83;;
13026;SDS011;6580;42.680;23.324;2024-03-02T00:25:54;16.37;;;11.83;;
13026;SDS011;6580;42.680;23.324;2024-03-02T00:28:23;21.67;;;14.33;;
13026;SDS011;6580;42.680;23.324;2024-03-02T00:30:57;22.60;;;15.57;;
13026;SDS011;6580;42.680;23.324;2024-03-02T00:33:29;16.93;;;12.80;;
13026;SDS011;6580;42.680;23.324;2024-03-02T00:35:58;21.90;;;15.70;;
13026;SDS011;6580;42.680;23.324;2024-03-02T00:38:28;19.70;;;13.93;;
13026;SDS011;6580;42.680;23.324;2024-03-02T00:43:51;19.70;;;13.53;;
13026;SDS011;6580;42.680;23.324;2024-03-02T00:46:24;21.50;;;14.63;;
13026;SDS011;6580;42.680;23.324;2024-03-02T00:48:54;18.83;;;13.87;;
13026;SDS011;6580;42.680;23.324;2024-03-02T00:51:23;18.80;;;13.37;;
13026;SDS011;6580;42.680;23.324;2024-03-02T00:53:51;18.40;;;13.70;;
13026;SDS011;6580;42.680;23.324;2024-03-02T00:56:22;20.87;;;14.63;;
13026;SDS011;6580;42.680;23.324;2024-03-02T00:58:50;20.67;;;13.10;;
13026;SDS011;6580;42.680;23.324;2024-03-02T01:01:18;21.50;;;14.67;;
13026;SDS011;6580;42.680;23.324;2024-03-02T01:03:46;16.93;;;12.33;;
13026;SDS011;6580;42.680;23.324;2024-03-02T01:06:15;17.53;;;12.33;;
13026;SDS011;6580;42.680;23.324;2024-03-02T01:08:43;19.03;;;13.30;;
13026;SDS011;6580;42.680;23.324;2024-03-02T01:11:11;19.07;;;12.47;;
13026;SDS011;6580;42.680;23.324;2024-03-02T01:13:40;21.03;;;13.27;;
13026;SDS011;6580;42.680;23.324;2024-03-02T01:16:11;19.33;;;13.13;;
13026;SDS011;6580;42.680;23.324;2024-03-02T01:18:38;21.83;;;14.30;;
13026;SDS011;6580;42.680;23.324;2024-03-02T01:21:05;15.77;;;12.73;;
13026;SDS011;6580;42.680;23.324;2024-03-02T01:23:32;16.77;;;12.33;;
13026;SDS011;6580;42.680;23.324;2024-03-02T01:25:59;17.17;;;11.57;;
13026;SDS011;6580;42.680;23.324;2024-03-02T01:28:26;17.63;;;12.13;;
13026;SDS011;6580;42.680;23.324;2024-03-02T01:30:54;18.37;;;12.90;;
13026;SDS011;6580;42.680;23.324;2024-03-02T01:33:23;15.87;;;11.23;;
13026;SDS011;6580;42.680;23.324;2024-03-02T01:35:50;18.93;;;12.53;;
13026;SDS011;6580;42.680;23.324;2024-03-02T01:38:17;18.17;;;12.53;;
13026;SDS011;6580;42.680;23.324;2024-03-02T01:40:44;19.90;;;13.47;;
13026;SDS011;6580;42.680;23.324;2024-03-02T01:43:11;18.67;;;13.67;;
13026;SDS011;6580;42.680;23.324;2024-03-02T01:45:38;24.20;;;15.60;;
13026;SDS011;6580;42.680;23.324;2024-03-02T01:48:07;22.67;;;15.20;;
13026;SDS011;6580;42.680;23.324;2024-03-02T01:50:34;18.43;;;13.83;;
13026;SDS011;6580;42.680;23.324;2024-03-02T01:53:03;19.70;;;14.47;;
13026;SDS011;6580;42.680;23.324;2024-03-02T01:55:30;18.70;;;13.30;;
13026;SDS011;6580;42.680;23.324;2024-03-02T01:57:58;20.17;;;14.53;;
13026;SDS011;6580;42.680;23.324;2024-03-02T02:00:28;23.17;;;15.03;;
13026;SDS011;6580;42.680;23.324;2024-03-02T02:02:55;23.20;;;15.47;;
13026;SDS011;6580;42.680;23.324;2024-03-02T02:05:24;19.90;;;14.93;;
13026;SDS011;6580;42.680;23.324;2024-03-02T02:07:51;22.30;;;16.63;;
13026;SDS011;6580;42.680;23.324;2024-03-02T02:10:19;23.93;;;17.13;;
13026;SDS011;6580;42.680;23.324;2024-03-02T02:12:46;25.93;;;16.47;;
13026;SDS011;6580;42.680;23.324;2024-03-02T02:15:24;22.53;;;16.53;;
13026;SDS011;6580;42.680;23.324;2024-03-02T02:17:53;24.40;;;17.37;;
13026;SDS011;6580;42.680;23.324;2024-03-02T02:20:21;27.07;;;18.27;;
13026;SDS011;6580;42.680;23.324;2024-03-02T02:22:58;27.33;;;17.53;;
13026;SDS011;6580;42.680;23.324;2024-03-02T02:25:29;27.73;;;17.70;;
13026;SDS011;6580;42.680;23.324;2024-03-02T02:27:57;25.60;;;16.80;;
13026;SDS011;6580;42.680;23.324;2024-03-02T02:30:26;30.57;;;18.00;;
13026;SDS011;6580;42.680;23.324;2024-03-02T02:32:55;25.30;;;17.77;;
13026;SDS011;6580;42.680;23.324;2024-03-02T02:35:23;26.70;;;19.13;;
13026;SDS011;6580;42.680;23.324;2024-03-02T02:37:51;25.10;;;17.83;;
13026;SDS011;6580;42.680;23.324;2024-03-02T02:40:23;22.80;;;17.17;;
13026;SDS011;6580;42.680;23.324;2024-03-02T02:42:50;27.63;;;17.20;;
13026;SDS011;6580;42.680;23.324;2024-03-02T02:45:18;25.80;;;16.53;;
13026;SDS011;6580;42.680;23.324;2024-03-02T02:47:45;25.33;;;18.30;;
13026;SDS011;6580;42.680;23.324;2024-03-02T02:50:12;24.17;;;17.17;;
13026;SDS011;6580;42.680;23.324;2024-03-02T02:52:40;24.20;;;17.10;;
13026;SDS011;6580;42.680;23.324;2024-03-02T02:55:08;25.63;;;16.90;;
13026;SDS011;6580;42.680;23.324;2024-03-02T02:57:38;22.67;;;16.20;;
13026;SDS011;6580;42.680;23.324;2024-03-02T03:00:10;25.23;;;17.53;;
13026;SDS011;6580;42.680;23.324;2024-03-02T03:02:40;22.40;;;16.73;;
13026;SDS011;6580;42.680;23.324;2024-03-02T03:05:08;24.23;;;15.83;;
13026;SDS011;6580;42.680;23.324;2024-03-02T03:07:36;25.47;;;16.97;;
13026;SDS011;6580;42.680;23.324;2024-03-02T03:10:06;25.93;;;17.73;;
13026;SDS011;6580;42.680;23.324;2024-03-02T03:12:37;23.93;;;17.73;;
13026;SDS011;6580;42.680;23.324;2024-03-02T03:15:08;24.63;;;17.00;;
13026;SDS011;6580;42.680;23.324;2024-03-02T03:17:36;24.53;;;17.53;;
13026;SDS011;6580;42.680;23.324;2024-03-02T03:20:04;27.23;;;18.10;;
13026;SDS011;6580;42.680;23.324;2024-03-02T03:22:35;25.00;;;17.40;;
13026;SDS011;6580;42.680;23.324;2024-03-02T03:25:02;25.10;;;16.80;;
13026;SDS011;6580;42.680;23.324;2024-03-02T03:27:30;27.60;;;18.70;;
13026;SDS011;6580;42.680;23.324;2024-03-02T03:29:58;27.00;;;18.03;;
13026;SDS011;6580;42.680;23.324;2024-03-02T03:32:31;28.00;;;18.20;;
13026;SDS011;6580;42.680;23.324;2024-03-02T03:34:59;26.10;;;17.87;;
13026;SDS011;6580;42.680;23.324;2024-03-02T03:37:26;25.57;;;17.43;;
13026;SDS011;6580;42.680;23.324;2024-03-02T03:39:57;28.80;;;19.43;;
13026;SDS011;6580;42.680;23.324;2024-03-02T03:42:25;26.40;;;18.43;;
13026;SDS011;6580;42.680;23.324;2024-03-02T03:44:52;27.27;;;18.77;;
13026;SDS011;6580;42.680;23.324;2024-03-02T03:47:28;26.83;;;18.80;;
13026;SDS011;6580;42.680;23.324;2024-03-02T03:49:56;31.37;;;19.10;;
13026;SDS011;6580;42.680;23.324;2024-03-02T03:52:26;26.40;;;19.07;;
13026;SDS011;6580;42.680;23.324;2024-03-02T03:54:53;28.13;;;17.87;;
13026;SDS011;6580;42.680;23.324;2024-03-02T03:57:20;25.70;;;17.90;;
13026;SDS011;6580;42.680;23.324;2024-03-02T03:59:52;27.77;;;18.23;;
13026;SDS011;6580;42.680;23.324;2024-03-02T04:02:19;28.00;;;17.47;;
13026;SDS011;6580;42.680;23.324;2024-03-02T04:04:50;30.27;;;18.40;;
13026;SDS011;6580;42.680;23.324;2024-03-02T04:07:17;25.33;;;18.07;;
13026;SDS011;6580;42.680;23.324;2024-03-02T04:09:45;28.67;;;18.27;;
13026;SDS011;6580;42.680;23.324;2024-03-02T04:12:13;29.03;;;19.20;;
13026;SDS011;6580;42.680;23.324;2024-03-02T04:14:40;32.70;;;20.00;;
13026;SDS011;6580;42.680;23.324;2024-03-02T04:17:08;31.63;;;19.67;;
13026;SDS011;6580;42.680;23.324;2024-03-02T04:19:35;31.00;;;20.43;;
13026;SDS011;6580;42.680;23.324;2024-03-02T04:22:08;28.00;;;19.00;;
13026;SDS011;6580;42.680;23.324;2024-03-02T04:24:36;28.20;;;20.13;;
13026;SDS011;6580;42.680;23.324;2024-03-02T04:27:03;29.83;;;20.23;;
13026;SDS011;6580;42.680;23.324;2024-03-02T04:29:30;27.70;;;19.33;;
13026;SDS011;6580;42.680;23.324;2024-03-02T04:31:57;34.93;;;21.83;;
13026;SDS011;6580;42.680;23.324;2024-03-02T04:34:24;35.77;;;23.67;;
13026;SDS011;6580;42.680;23.324;2024-03-02T04:36:51;34.37;;;22.33;;
13026;SDS011;6580;42.680;23.324;2024-03-02T04:39:19;32.13;;;21.67;;
13026;SDS011;6580;42.680;23.324;2024-03-02T04:41:47;33.20;;;22.33;;
13026;SDS011;6580;42.680;23.324;2024-03-02T04:44:15;32.80;;;21.80;;
13026;SDS011;6580;42.680;23.324;2024-03-02T04:46:42;33.17;;;22.87;;
13026;SDS011;6580;42.680;23.324;2024-03-02T04:49:10;34.70;;;21.63;;
13026;SDS011;6580;42.680;23.324;2024-03-02T04:51:37;32.20;;;21.30;;
13026;SDS011;6580;42.680;23.324;2024-03-02T04:54:04;31.67;;;21.33;;
13026;SDS011;6580;42.680;23.324;2024-03-02T04:56:33;31.87;;;21.97;;
13026;SDS011;6580;42.680;23.324;2024-03-02T04:59:09;32.80;;;21.77;;
13026;SDS011;6580;42.680;23.324;2024-03-02T05:01:36;33.77;;;22.93;;
13026;SDS011;6580;42.680;23.324;2024-03-02T05:04:03;32.73;;;21.47;;
13026;SDS011;6580;42.680;23.324;2024-03-02T05:06:30;30.20;;;21.10;;
13026;SDS011;6580;42.680;23.324;2024-03-02T05:09:00;37.30;;;24.00;;
13026;SDS011;6580;42.680;23.324;2024-03-02T05:11:27;38.63;;;23.83;;
13026;SDS011;6580;42.680;23.324;2024-03-02T05:14:13;38.97;;;23.93;;
13026;SDS011;6580;42.680;23.324;2024-03-02T05:16:40;38.33;;;24.33;;
13026;SDS011;6580;42.680;23.324;2024-03-02T05:19:07;36.27;;;24.17;;
13026;SDS011;6580;42.680;23.324;2024-03-02T05:21:34;36.23;;;22.87;;
13026;SDS011;6580;42.680;23.324;2024-03-02T05:24:01;39.60;;;24.33;;
13026;SDS011;6580;42.680;23.324;2024-03-02T05:26:28;39.63;;;25.57;;
13026;SDS011;6580;42.680;23.324;2024-03-02T05:28:55;37.47;;;24.57;;
13026;SDS011;6580;42.680;23.324;2024-03-02T05:31:25;37.67;;;25.33;;
13026;SDS011;6580;42.680;23.324;2024-03-02T05:33:52;42.83;;;27.67;;
13026;SDS011;6580;42.680;23.324;2024-03-02T05:36:19;40.83;;;26.30;;
13026;SDS011;6580;42.680;23.324;2024-03-02T05:38:46;46.80;;;28.33;;
13026;SDS011;6580;42.680;23.324;2024-03-02T05:41:13;45.87;;;27.17;;
13026;SDS011;6580;42.680;23.324;2024-03-02T05:43:41;40.67;;;26.53;;
13026;SDS011;6580;42.680;23.324;2024-03-02T05:46:09;41.13;;;27.97;;
13026;SDS011;6580;42.680;23.324;2024-03-02T05:48:38;44.37;;;26.83;;
13026;SDS011;6580;42.680;23.324;2024-03-02T05:51:05;40.30;;;26.10;;
13026;SDS011;6580;42.680;23.324;2024-03-02T05:53:32;35.97;;;23.63;;
13026;SDS011;6580;42.680;23.324;2024-03-02T05:56:00;38.77;;;22.30;;
13026;SDS011;6580;42.680;23.324;2024-03-02T05:58:28;33.00;;;22.17;;
13026;SDS011;6580;42.680;23.324;2024-03-02T06:01:09;39.17;;;23.10;;
13026;SDS011;6580;42.680;23.324;2024-03-02T06:03:40;34.17;;;22.47;;
13026;SDS011;6580;42.680;23.324;2024-03-02T06:06:07;34.27;;;22.97;;
13026;SDS011;6580;42.680;23.324;2024-03-02T06:08:34;40.17;;;22.63;;
13026;SDS011;6580;42.680;23.324;2024-03-02T06:11:01;33.63;;;21.87;;
13026;SDS011;6580;42.680;23.324;2024-03-02T06:13:28;35.90;;;21.50;;
13026;SDS011;6580;42.680;23.324;2024-03-02T06:15:58;37.47;;;23.23;;
13026;SDS011;6580;42.680;23.324;2024-03-02T06:18:26;36.70;;;21.40;;
13026;SDS011;6580;42.680;23.324;2024-03-02T06:20:54;31.10;;;20.43;;
13026;SDS011;6580;42.680;23.324;2024-03-02T06:23:24;37.37;;;20.40;;
13026;SDS011;6580;42.680;23.324;2024-03-02T06:25:52;32.90;;;19.60;;
13026;SDS011;6580;42.680;23.324;2024-03-02T06:28:22;31.10;;;19.77;;
13026;SDS011;6580;42.680;23.324;2024-03-02T06:30:48;31.93;;;20.57;;
13026;SDS011;6580;42.680;23.324;2024-03-02T06:33:15;30.87;;;19.37;;
13026;SDS011;6580;42.680;23.324;2024-03-02T06:35:43;34.50;;;20.80;;
13026;SDS011;6580;42.680;23.324;2024-03-02T06:38:12;31.97;;;19.63;;
13026;SDS011;6580;42.680;23.324;2024-03-02T06:40:44;33.50;;;20.60;;
13026;SDS011;6580;42.680;23.324;2024-03-02T06:43:12;35.10;;;21.30;;
13026;SDS011;6580;42.680;23.324;2024-03-02T06:45:39;36.20;;;21.70;;
13026;SDS011;6580;42.680;23.324;2024-03-02T06:48:08;37.87;;;22.70;;
13026;SDS011;6580;42.680;23.324;2024-03-02T06:50:36;36.37;;;22.53;;
13026;SDS011;6580;42.680;23.324;2024-03-02T06:53:03;35.00;;;21.73;;
13026;SDS011;6580;42.680;23.324;2024-03-02T06:55:34;35.13;;;22.20;;
13026;SDS011;6580;42.680;23.324;2024-03-02T06:58:02;37.63;;;19.73;;
13026;SDS011;6580;42.680;23.324;2024-03-02T07:00:31;35.30;;;21.90;;
13026;SDS011;6580;42.680;23.324;2024-03-02T07:03:03;38.50;;;23.77;;
13026;SDS011;6580;42.680;23.324;2024-03-02T07:05:30;39.83;;;22.77;;
13026;SDS011;6580;42.680;23.324;2024-03-02T07:07:58;31.67;;;20.97;;
13026;SDS011;6580;42.680;23.324;2024-03-02T07:10:26;32.40;;;19.90;;
13026;SDS011;6580;42.680;23.324;2024-03-02T07:12:55;32.40;;;20.67;;
13026;SDS011;6580;42.680;23.324;2024-03-02T07:15:22;31.57;;;19.33;;
13026;SDS011;6580;42.680;23.324;2024-03-02T07:18:07;36.20;;;21.37;;
13026;SDS011;6580;42.680;23.324;2024-03-02T07:20:37;34.73;;;20.13;;
13026;SDS011;6580;42.680;23.324;2024-03-02T07:23:05;36.47;;;19.73;;
13026;SDS011;6580;42.680;23.324;2024-03-02T07:25:34;31.30;;;20.13;;
13026;SDS011;6580;42.680;23.324;2024-03-02T07:28:02;33.17;;;20.30;;
13026;SDS011;6580;42.680;23.324;2024-03-02T07:30:32;34.17;;;21.07;;
13026;SDS011;6580;42.680;23.324;2024-03-02T07:33:00;34.40;;;20.80;;
13026;SDS011;6580;42.680;23.324;2024-03-02T07:35:29;35.33;;;21.23;;
13026;SDS011;6580;42.680;23.324;2024-03-02T07:37:56;35.87;;;22.00;;
13026;SDS011;6580;42.680;23.324;2024-03-02T07:40:24;37.33;;;20.60;;
13026;SDS011;6580;42.680;23.324;2024-03-02T07:42:53;35.40;;;21.43;;
13026;SDS011;6580;42.680;23.324;2024-03-02T07:45:22;35.90;;;21.13;;
13026;SDS011;6580;42.680;23.324;2024-03-02T07:47:50;32.77;;;21.03;;
13026;SDS011;6580;42.680;23.324;2024-03-02T07:50:17;31.27;;;21.07;;
13026;SDS011;6580;42.680;23.324;2024-03-02T07:52:45;33.83;;;21.80;;
13026;SDS011;6580;42.680;23.324;2024-03-02T07:55:14;38.70;;;23.23;;
13026;SDS011;6580;42.680;23.324;2024-03-02T07:57:41;32.87;;;21.03;;
13026;SDS011;6580;42.680;23.324;2024-03-02T08:00:09;36.90;;;21.60;;
13026;SDS011;6580;42.680;23.324;2024-03-02T08:02:38;36.77;;;21.37;;
13026;SDS011;6580;42.680;23.324;2024-03-02T08:05:08;33.30;;;21.33;;
13026;SDS011;6580;42.680;23.324;2024-03-02T08:07:35;33.87;;;20.60;;
13026;SDS011;6580;42.680;23.324;2024-03-02T08:10:02;33.37;;;20.63;;
13026;SDS011;6580;42.680;23.324;2024-03-02T08:12:31;30.47;;;21.27;;
13026;SDS011;6580;42.680;23.324;2024-03-02T08:14:58;34.33;;;21.33;;
13026;SDS011;6580;42.680;23.324;2024-03-02T08:17:31;33.23;;;20.57;;
13026;SDS011;6580;42.680;23.324;2024-03-02T08:20:01;34.37;;;21.10;;
13026;SDS011;6580;42.680;23.324;2024-03-02T08:22:29;34.13;;;20.70;;
13026;SDS011;6580;42.680;23.324;2024-03-02T08:24:56;30.63;;;19.47;;
13026;SDS011;6580;42.680;23.324;2024-03-02T08:27:30;33.53;;;19.70;;
13026;SDS011;6580;42.680;23.324;2024-03-02T08:30:01;27.77;;;17.10;;
13026;SDS011;6580;42.680;23.324;2024-03-02T08:32:34;30.43;;;17.80;;
13026;SDS011;6580;42.680;23.324;2024-03-02T08:35:04;27.57;;;17.57;;
13026;SDS011;6580;42.680;23.324;2024-03-02T08:37:33;30.97;;;19.20;;
13026;SDS011;6580;42.680;23.324;2024-03-02T08:40:07;26.40;;;17.63;;
13026;SDS011;6580;42.680;23.324;2024-03-02T08:42:35;28.87;;;18.43;;
13026;SDS011;6580;42.680;23.324;2024-03-02T08:45:06;29.27;;;18.40;;
13026;SDS011;6580;42.680;23.324;2024-03-02T08:47:48;29.83;;;17.93;;
13026;SDS011;6580;42.680;23.324;2024-03-02T08:50:22;29.10;;;18.30;;
13026;SDS011;6580;42.680;23.324;2024-03-02T08:52:54;28.70;;;19.03;;
13026;SDS011;6580;42.680;23.324;2024-03-02T08:58:25;27.57;;;17.23;;
13026;SDS011;6580;42.680;23.324;2024-03-02T09:00:55;26.40;;;17.50;;
13026;SDS011;6580;42.680;23.324;2024-03-02T09:03:22;25.57;;;19.67;;
13026;SDS011;6580;42.680;23.324;2024-03-02T09:09:09;27.63;;;18.40;;
13026;SDS011;6580;42.680;23.324;2024-03-02T09:11:53;29.70;;;19.57;;
13026;SDS011;6580;42.680;23.324;2024-03-02T09:14:43;30.07;;;18.43;;
13026;SDS011;6580;42.680;23.324;2024-03-02T09:17:15;27.47;;;17.87;;
13026;SDS011;6580;42.680;23.324;2024-03-02T09:19:47;25.30;;;17.00;;
13026;SDS011;6580;42.680;23.324;2024-03-02T09:22:23;24.20;;;16.77;;
13026;SDS011;6580;42.680;23.324;2024-03-02T09:24:54;28.10;;;18.33;;
13026;SDS011;6580;42.680;23.324;2024-03-02T09:27:21;23.73;;;17.37;;
13026;SDS011;6580;42.680;23.324;2024-03-02T09:30:02;28.67;;;18.77;;
13026;SDS011;6580;42.680;23.324;2024-03-02T09:32:31;26.30;;;17.13;;
13026;SDS011;6580;42.680;23.324;2024-03-02T09:34:58;29.47;;;18.33;;
13026;SDS011;6580;42.680;23.324;2024-03-02T09:37:28;28.33;;;18.60;;
13026;SDS011;6580;42.680;23.324;2024-03-02T09:39:58;26.67;;;18.00;;
13026;SDS011;6580;42.680;23.324;2024-03-02T09:42:30;28.50;;;18.00;;
13026;SDS011;6580;42.680;23.324;2024-03-02T09:45:00;26.73;;;17.57;;
13026;SDS011;6580;42.680;23.324;2024-03-02T09:47:29;27.23;;;17.90;;
13026;SDS011;6580;42.680;23.324;2024-03-02T09:49:57;25.80;;;17.90;;
13026;SDS011;6580;42.680;23.324;2024-03-02T09:52:34;23.07;;;16.70;;
13026;SDS011;6580;42.680;23.324;2024-03-02T09:55:11;29.43;;;18.63;;
13026;SDS011;6580;42.680;23.324;2024-03-02T09:57:46;27.87;;;19.10;;
13026;SDS011;6580;42.680;23.324;2024-03-02T10:00:15;33.20;;;20.37;;
13026;SDS011;6580;42.680;23.324;2024-03-02T10:02:44;29.30;;;19.73;;
13026;SDS011;6580;42.680;23.324;2024-03-02T10:05:17;26.97;;;19.73;;
13026;SDS011;6580;42.680;23.324;2024-03-02T10:08:03;29.47;;;18.77;;
13026;SDS011;6580;42.680;23.324;2024-03-02T10:10:36;28.80;;;18.43;;
13026;SDS011;6580;42.680;23.324;2024-03-02T10:14:31;27.07;;;16.87;;
13026;SDS011;6580;42.680;23.324;2024-03-02T10:16:35;24.30;;;17.23;;
13026;SDS011;6580;42.680;23.324;2024-03-02T10:19:17;31.90;;;20.07;;
13026;SDS011;6580;42.680;23.324;2024-03-02T10:22:09;30.23;;;20.57;;
13026;SDS011;6580;42.680;23.324;2024-03-02T10:24:39;26.17;;;18.67;;
13026;SDS011;6580;42.680;23.324;2024-03-02T10:27:15;29.47;;;19.97;;
13026;SDS011;6580;42.680;23.324;2024-03-02T10:29:45;30.73;;;21.03;;
13026;SDS011;6580;42.680;23.324;2024-03-02T10:32:18;32.83;;;21.70;;
13026;SDS011;6580;42.680;23.324;2024-03-02T10:34:54;32.83;;;21.63;;
13026;SDS011;6580;42.680;23.324;2024-03-02T10:37:22;33.70;;;20.73;;
13026;SDS011;6580;42.680;23.324;2024-03-02T10:39:59;33.33;;;21.67;;
13026;SDS011;6580;42.680;23.324;2024-03-02T10:42:33;28.90;;;19.07;;
13026;SDS011;6580;42.680;23.324;2024-03-02T10:45:04;29.40;;;19.10;;
13026;SDS011;6580;42.680;23.324;2024-03-02T10:47:34;26.63;;;18.77;;
13026;SDS011;6580;42.680;23.324;2024-03-02T10:50:09;27.17;;;18.43;;
13026;SDS011;6580;42.680;23.324;2024-03-02T10:52:38;26.00;;;17.90;;
13026;SDS011;6580;42.680;23.324;2024-03-02T10:55:08;24.40;;;17.70;;
13026;SDS011;6580;42.680;23.324;2024-03-02T10:57:40;26.03;;;17.53;;
13026;SDS011;6580;42.680;23.324;2024-03-02T11:00:12;30.27;;;19.30;;
13026;SDS011;6580;42.680;23.324;2024-03-02T11:02:46;23.73;;;16.87;;
13026;SDS011;6580;42.680;23.324;2024-03-02T11:05:22;25.37;;;16.90;;
13026;SDS011;6580;42.680;23.324;2024-03-02T11:07:56;25.37;;;17.93;;
13026;SDS011;6580;42.680;23.324;2024-03-02T11:10:28;25.53;;;17.27;;
13026;SDS011;6580;42.680;23.324;2024-03-02T11:13:02;22.63;;;16.93;;
13026;SDS011;6580;42.680;23.324;2024-03-02T11:15:32;27.47;;;16.77;;
13026;SDS011;6580;42.680;23.324;2024-03-02T11:18:03;24.30;;;16.67;;
13026;SDS011;6580;42.680;23.324;2024-03-02T11:20:34;25.33;;;16.30;;
13026;SDS011;6580;42.680;23.324;2024-03-02T11:23:06;26.20;;;17.70;;
13026;SDS011;6580;42.680;23.324;2024-03-02T11:25:36;25.00;;;17.07;;
13026;SDS011;6580;42.680;23.324;2024-03-02T11:28:04;25.60;;;17.10;;
13026;SDS011;6580;42.680;23.324;2024-03-02T11:30:53;23.17;;;17.03;;
13026;SDS011;6580;42.680;23.324;2024-03-02T11:33:26;25.70;;;17.53;;
13026;SDS011;6580;42.680;23.324;2024-03-02T11:35:56;28.10;;;19.10;;
13026;SDS011;6580;42.680;23.324;2024-03-02T11:38:29;27.40;;;18.10;;
13026;SDS011;6580;42.680;23.324;2024-03-02T11:40:59;24.47;;;16.47;;
13026;SDS011;6580;42.680;23.324;2024-03-02T11:43:27;24.20;;;16.50;;
13026;SDS011;6580;42.680;23.324;2024-03-02T11:45:57;25.80;;;18.67;;
13026;SDS011;6580;42.680;23.324;2024-03-02T11:48:27;26.57;;;18.47;;
13026;SDS011;6580;42.680;23.324;2024-03-02T11:50:53;29.47;;;17.83;;
13026;SDS011;6580;42.680;23.324;2024-03-02T11:53:26;25.53;;;17.40;;
13026;SDS011;6580;42.680;23.324;2024-03-02T11:55:59;30.07;;;18.93;;
13026;SDS011;6580;42.680;23.324;2024-03-02T11:58:28;30.33;;;19.47;;
13026;SDS011;6580;42.680;23.324;2024-03-02T12:00:55;28.80;;;18.37;;
13026;SDS011;6580;42.680;23.324;2024-03-02T12:03:24;27.30;;;17.80;;
13026;SDS011;6580;42.680;23.324;2024-03-02T12:05:52;27.70;;;20.00;;
13026;SDS011;6580;42.680;23.324;2024-03-02T12:08:20;30.53;;;20.43;;
13026;SDS011;6580;42.680;23.324;2024-03-02T12:10:56;27.60;;;18.93;;
13026;SDS011;6580;42.680;23.324;2024-03-02T12:13:28;25.10;;;17.70;;
13026;SDS011;6580;42.680;23.324;2024-03-02T12:15:59;24.20;;;17.80;;
13026;SDS011;6580;42.680;23.324;2024-03-02T12:18:31;25.13;;;17.53;;
13026;SDS011;6580;42.680;23.324;2024-03-02T12:21:02;25.87;;;17.13;;
13026;SDS011;6580;42.680;23.324;2024-03-02T12:23:34;26.37;;;18.60;;
13026;SDS011;6580;42.680;23.324;2024-03-02T12:26:06;24.07;;;16.77;;
13026;SDS011;6580;42.680;23.324;2024-03-02T12:28:35;26.17;;;17.37;;
13026;SDS011;6580;42.680;23.324;2024-03-02T12:31:02;23.93;;;16.97;;
13026;SDS011;6580;42.680;23.324;2024-03-02T12:33:32;23.10;;;16.00;;
13026;SDS011;6580;42.680;23.324;2024-03-02T12:36:01;24.30;;;17.10;;
13026;SDS011;6580;42.680;23.324;2024-03-02T12:38:30;22.77;;;15.77;;
13026;SDS011;6580;42.680;23.324;2024-03-02T12:41:03;24.00;;;16.87;;
13026;SDS011;6580;42.680;23.324;2024-03-02T12:43:41;21.40;;;16.30;;
13026;SDS011;6580;42.680;23.324;2024-03-02T12:46:11;23.03;;;16.47;;
13026;SDS011;6580;42.680;23.324;2024-03-02T12:48:43;21.67;;;15.90;;
13026;SDS011;6580;42.680;23.324;2024-03-02T12:51:12;23.57;;;16.33;;
13026;SDS011;6580;42.680;23.324;2024-03-02T12:53:42;25.33;;;17.50;;
13026;SDS011;6580;42.680;23.324;2024-03-02T12:56:10;22.20;;;15.70;;
13026;SDS011;6580;42.680;23.324;2024-03-02T12:58:45;20.93;;;15.77;;
13026;SDS011;6580;42.680;23.324;2024-03-02T13:01:16;19.83;;;15.93;;
13026;SDS011;6580;42.680;23.324;2024-03-02T13:03:45;19.33;;;15.20;;
13026;SDS011;6580;42.680;23.324;2024-03-02T13:06:16;18.10;;;14.77;;
13026;SDS011;6580;42.680;23.324;2024-03-02T13:08:44;19.13;;;15.10;;
13026;SDS011;6580;42.680;23.324;2024-03-02T13:11:13;19.57;;;15.43;;
13026;SDS011;6580;42.680;23.324;2024-03-02T13:13:40;21.87;;;16.30;;
13026;SDS011;6580;42.680;23.324;2024-03-02T13:16:11;22.00;;;17.17;;
13026;SDS011;6580;42.680;23.324;2024-03-02T13:18:41;23.30;;;16.57;;
13026;SDS011;6580;42.680;23.324;2024-03-02T13:21:10;21.57;;;17.27;;
13026;SDS011;6580;42.680;23.324;2024-03-02T13:23:38;21.37;;;16.93;;
13026;SDS011;6580;42.680;23.324;2024-03-02T13:26:05;21.43;;;15.53;;
13026;SDS011;6580;42.680;23.324;2024-03-02T13:28:33;20.70;;;14.57;;
13026;SDS011;6580;42.680;23.324;2024-03-02T13:31:00;21.80;;;16.70;;
13026;SDS011;6580;42.680;23.324;2024-03-02T13:33:29;21.80;;;15.93;;
13026;SDS011;6580;42.680;23.324;2024-03-02T13:35:58;19.93;;;15.87;;
13026;SDS011;6580;42.680;23.324;2024-03-02T13:38:25;19.30;;;15.73;;
13026;SDS011;6580;42.680;23.324;2024-03-02T13:40:53;21.03;;;15.83;;
13026;SDS011;6580;42.680;23.324;2024-03-02T13:43:21;21.67;;;15.60;;
13026;SDS011;6580;42.680;23.324;2024-03-02T13:45:52;23.40;;;16.30;;
13026;SDS011;6580;42.680;23.324;2024-03-02T13:48:19;20.90;;;16.60;;
13026;SDS011;6580;42.680;23.324;2024-03-02T13:50:49;20.47;;;16.10;;
13026;SDS011;6580;42.680;23.324;2024-03-02T13:53:20;19.90;;;14.77;;
13026;SDS011;6580;42.680;23.324;2024-03-02T13:55:48;21.23;;;15.80;;
13026;SDS011;6580;42.680;23.324;2024-03-02T13:58:19;20.87;;;15.13;;
13026;SDS011;6580;42.680;23.324;2024-03-02T14:00:49;18.37;;;14.90;;
13026;SDS011;6580;42.680;23.324;2024-03-02T14:03:18;21.07;;;15.87;;
13026;SDS011;6580;42.680;23.324;2024-03-02T14:05:46;22.17;;;15.77;;
13026;SDS011;6580;42.680;23.324;2024-03-02T14:08:16;21.73;;;15.23;;
13026;SDS011;6580;42.680;23.324;2024-03-02T14:10:43;23.03;;;16.00;;
13026;SDS011;6580;42.680;23.324;2024-03-02T14:13:11;20.80;;;14.83;;
13026;SDS011;6580;42.680;23.324;2024-03-02T14:15:38;22.17;;;16.10;;
13026;SDS011;6580;42.680;23.324;2024-03-02T14:18:05;20.63;;;16.30;;
13026;SDS011;6580;42.680;23.324;2024-03-02T14:20:36;24.57;;;16.53;;
13026;SDS011;6580;42.680;23.324;2024-03-02T14:23:04;18.50;;;15.90;;
13026;SDS011;6580;42.680;23.324;2024-03-02T14:25:34;20.03;;;16.33;;
13026;SDS011;6580;42.680;23.324;2024-03-02T14:28:01;23.53;;;16.80;;
13026;SDS011;6580;42.680;23.324;2024-03-02T14:30:31;23.90;;;16.97;;
13026;SDS011;6580;42.680;23.324;2024-03-02T14:32:59;19.87;;;14.90;;
13026;SDS011;6580;42.680;23.324;2024-03-02T14:35:26;19.87;;;15.90;;
13026;SDS011;6580;42.680;23.324;2024-03-02T14:37:53;24.20;;;16.60;;
13026;SDS011;6580;42.680;23.324;2024-03-02T14:40:25;20.77;;;16.00;;
13026;SDS011;6580;42.680;23.324;2024-03-02T14:42:59;21.17;;;16.20;;
13026;SDS011;6580;42.680;23.324;2024-03-02T14:45:26;20.23;;;14.87;;